Time;durP1;ratioP1;P1;durP2;ratioP2;P2;SDS_P1;SDS_P2;PMS_P1;PMS_P2;Temp;Humidity;BMP_temperature;BMP_pressure;BME280_temperature;BME280_humidity;BME280_pressure;Samples;Min_cycle;Max_cycle;Signal;HPM_P1;HPM_P2
2021/08/17 00:01:09;;;;;;;;;4.00;4.00;;;;;20.13;99.75;98840.34;2402283;31;2748113;-50
2021/08/17 00:03:38;;;;;;;;;5.00;5.00;;;;;19.87;100.00;98825.09;2401564;31;2752267;-53
2021/08/17 00:06:08;;;;;;;;;4.67;3.67;;;;;19.77;100.00;98805.38;2401316;39;2750184;-54
2021/08/17 00:08:36;;;;;;;;;5.00;5.00;;;;;20.04;99.12;98808.72;2403118;31;2752256;-53
2021/08/17 00:11:07;;;;;;;;;3.00;3.00;;;;;19.97;100.00;98805.00;2402199;39;2746038;-54
2021/08/17 00:13:35;;;;;;;;;6.33;4.33;;;;;20.03;100.00;98813.28;2402264;31;2749169;-54
2021/08/17 00:16:04;;;;;;;;;4.00;4.00;;;;;20.02;100.00;98808.03;2403189;31;2748089;-56
2021/08/17 00:18:32;;;;;;;;;3.00;3.00;;;;;19.87;100.00;98819.66;2403458;31;2743950;-52
2021/08/17 00:21:00;;;;;;;;;3.67;3.67;;;;;19.61;100.00;98797.22;2405232;31;2741884;-55
2021/08/17 00:23:30;;;;;;;;;3.00;3.00;;;;;20.10;99.70;98808.84;2402604;31;2732505;-51
2021/08/17 00:25:58;;;;;;;;;5.67;4.33;;;;;19.99;99.84;98816.56;2402215;31;2754351;-50
2021/08/17 00:28:27;;;;;;;;;4.00;2.33;;;;;19.81;100.00;98804.00;2403944;31;2735606;-50
2021/08/17 00:30:55;;;;;;;;;4.00;4.00;;;;;19.94;100.00;98809.75;2404811;31;2747075;-51
2021/08/17 00:33:24;;;;;;;;;3.00;3.00;;;;;19.79;100.00;98816.94;2403534;31;2746050;-53
2021/08/17 00:35:55;;;;;;;;;3.33;3.00;;;;;19.85;100.00;98819.00;2402836;39;2739796;-51
2021/08/17 00:38:24;;;;;;;;;6.67;4.33;;;;;19.99;99.61;98832.91;2402326;39;2751234;-54
2021/08/17 00:40:54;;;;;;;;;5.00;4.00;;;;;20.08;99.05;98826.41;2403205;31;2754359;-52
2021/08/17 00:43:22;;;;;;;;;3.00;3.00;;;;;19.89;100.00;98827.66;2403112;31;2734584;-49
2021/08/17 00:45:51;;;;;;;;;2.00;2.00;;;;;19.87;100.00;98811.47;2403131;31;2750229;-51
2021/08/17 00:48:19;;;;;;;;;3.00;3.00;;;;;19.65;100.00;98810.31;2403682;31;2725185;-51
2021/08/17 00:50:47;;;;;;;;;4.00;4.00;;;;;19.59;100.00;98811.03;2402104;31;2754394;-52
2021/08/17 00:53:16;;;;;;;;;5.00;3.33;;;;;19.73;100.00;98813.06;2403563;31;2754344;-51
2021/08/17 00:55:44;;;;;;;;;2.67;2.67;;;;;19.70;100.00;98818.00;2403957;31;2735590;-52
2021/08/17 00:58:12;;;;;;;;;3.00;3.00;;;;;19.79;100.00;98819.69;2403372;31;2741927;-49
2021/08/17 01:00:40;;;;;;;;;3.67;3.67;;;;;20.00;99.68;98821.81;2404051;31;2758561;-48
2021/08/17 01:03:09;;;;;;;;;3.00;2.00;;;;;19.73;100.00;98814.94;2403314;31;2748105;-51
2021/08/17 01:05:37;;;;;;;;;3.67;3.00;;;;;19.84;99.92;98814.56;2403101;31;2740810;-53
2021/08/17 01:08:08;;;;;;;;;4.00;4.00;;;;;19.71;99.72;98822.44;2402511;31;2745004;-51
2021/08/17 01:10:41;;;;;;;;;3.67;3.00;;;;;19.80;100.00;98839.59;2402938;31;2738803;-52
2021/08/17 01:13:09;;;;;;;;;3.00;3.00;;;;;19.62;100.00;98842.53;2402678;31;2738779;-51
2021/08/17 01:15:37;;;;;;;;;2.67;2.00;;;;;19.64;100.00;98870.41;2403013;31;2742584;-48
2021/08/17 01:18:07;;;;;;;;;2.33;2.33;;;;;19.42;100.00;98902.75;2402930;31;2754379;-48
2021/08/17 01:20:37;;;;;;;;;3.00;3.00;;;;;19.47;100.00;98922.16;2403943;31;2735590;-49
2021/08/17 01:23:05;;;;;;;;;3.33;3.33;;;;;19.45;100.00;98948.69;2403292;31;2736644;-51
2021/08/17 01:25:38;;;;;;;;;3.67;3.67;;;;;19.02;100.00;98945.25;2402700;31;2744030;-51
2021/08/17 01:28:07;;;;;;;;;4.33;4.00;;;;;19.22;99.26;98943.09;2402439;31;2746002;-51
2021/08/17 01:30:35;;;;;;;;;3.00;3.00;;;;;18.75;100.00;98916.47;2402726;31;2746002;-49
2021/08/17 01:33:03;;;;;;;;;7.67;4.67;;;;;18.88;99.98;98899.66;2402419;31;2754403;-52
2021/08/17 01:35:31;;;;;;;;;4.00;4.00;;;;;19.16;97.90;98902.06;2403513;31;2744018;-49
2021/08/17 01:38:04;;;;;;;;;2.00;2.00;;;;;19.17;97.16;98896.47;2403413;31;2729360;-53
2021/08/17 01:40:32;;;;;;;;;4.00;4.00;;;;;19.06;97.91;98878.59;2402328;39;2754395;-48
2021/08/17 01:43:00;;;;;;;;;3.67;3.67;;;;;19.08;98.01;98868.38;2402239;31;2739788;-51
2021/08/17 01:45:29;;;;;;;;;8.67;4.00;;;;;19.03;97.96;98876.19;2402420;31;2748139;-54
2021/08/17 01:47:57;;;;;;;;;4.33;3.00;;;;;18.82;99.51;98867.69;2401727;39;2750204;-55
2021/08/17 01:50:25;;;;;;;;;4.00;4.00;;;;;18.86;98.52;98847.28;2401553;39;2748113;-52
2021/08/17 01:52:54;;;;;;;;;4.00;4.00;;;;;18.72;97.78;98845.19;2402829;31;2737704;-51
2021/08/17 01:55:21;;;;;;;;;4.00;4.00;;;;;18.76;97.90;98839.28;2402525;31;2750224;-51
2021/08/17 01:57:50;;;;;;;;;5.00;5.00;;;;;19.04;95.67;98856.16;2393547;31;2754351;-51
2021/08/17 02:00:21;;;;;;;;;4.60;4.20;;;;;18.97;95.98;98851.56;2416642;39;2481467;-51
2021/08/17 02:02:51;;;;;;;;;3.67;3.67;;;;;18.83;95.60;98847.63;2402301;31;2749139;-50
2021/08/17 02:05:23;;;;;;;;;5.00;3.50;;;;;18.77;95.74;98843.72;2402986;31;2741982;-52
2021/08/17 02:07:53;;;;;;;;;4.00;4.00;;;;;18.82;94.40;98829.59;2391937;39;2746062;-55
2021/08/17 02:10:21;;;;;;;;;4.00;4.00;;;;;18.70;95.37;98836.38;2402431;31;2745012;-52
2021/08/17 02:12:49;;;;;;;;;8.50;6.00;;;;;18.68;95.24;98843.84;2393117;31;2746010;-48
2021/08/17 02:15:16;;;;;;;;;5.50;5.50;;;;;18.69;94.64;98829.22;2392719;39;2744977;-54
2021/08/17 02:17:44;;;;;;;;;5.50;5.00;;;;;18.65;93.61;98832.25;2392411;31;2754371;-53
2021/08/17 02:20:12;;;;;;;;;6.00;6.00;;;;;18.60;95.04;98831.06;2393303;31;2730421;-50
2021/08/17 02:22:40;;;;;;;;;7.00;5.50;;;;;18.47;95.34;98830.69;2392086;31;2746058;-51
2021/08/17 02:25:08;;;;;;;;;6.00;6.00;;;;;18.67;93.74;98834.84;2392799;31;2732508;-54
2021/08/17 02:27:37;;;;;;;;;6.00;4.50;;;;;18.38;94.73;98827.97;2390927;31;2750240;-52
2021/08/17 02:30:05;;;;;;;;;4.00;4.00;;;;;18.26;97.10;98828.44;2391776;39;2739784;-51
2021/08/17 02:32:33;;;;;;;;;7.00;6.00;;;;;18.46;93.99;98835.28;2391871;31;2726263;-51
2021/08/17 02:35:02;;;;;;;;;6.00;6.00;;;;;18.12;97.02;98841.63;2392298;31;2736655;-51
2021/08/17 02:37:30;;;;;;;;;3.00;3.00;;;;;18.53;94.95;98843.63;2390972;31;2750228;-51
2021/08/17 02:39:57;;;;;;;;;8.00;5.50;;;;;18.70;93.89;98837.22;2392380;31;2737047;-52
2021/08/17 02:42:25;;;;;;;;;6.00;4.50;;;;;18.61;93.51;98843.63;2392705;31;2739768;-48
2021/08/17 02:44:52;;;;;;;;;3.00;2.00;;;;;18.51;93.49;98842.94;2394608;31;2734576;-49
2021/08/17 02:47:22;;;;;;;;;5.20;5.20;;;;;18.63;92.97;98842.44;2402220;31;2746042;-49
2021/08/17 02:49:49;;;;;;;;;7.00;5.00;;;;;18.21;96.55;98843.34;2404303;31;2626243;-52
2021/08/17 02:52:17;;;;;;;;;9.00;7.00;;;;;18.34;94.82;98858.34;2392892;31;2731435;-49
2021/08/17 02:54:44;;;;;;;;;6.50;6.50;;;;;18.49;94.69;98878.44;2392433;31;2739769;-51
2021/08/17 02:57:14;;;;;;;;;7.60;6.40;;;;;18.53;93.54;98874.38;2401587;31;2740889;-49
2021/08/17 02:59:41;;;;;;;;;6.00;6.00;;;;;18.55;93.26;98872.34;2402385;31;2739808;-52
2021/08/17 03:02:09;;;;;;;;;6.50;6.50;;;;;18.63;92.32;98885.97;2392636;31;2738723;-51
2021/08/17 03:04:37;;;;;;;;;6.00;6.00;;;;;18.40;94.26;98888.47;2392595;31;2734565;-46
2021/08/17 03:07:07;;;;;;;;;6.00;6.00;;;;;18.47;93.54;98906.81;2401970;46;2730418;-48
2021/08/17 03:09:35;;;;;;;;;6.50;6.50;;;;;18.28;93.58;98913.38;2402557;31;2741892;-49
2021/08/17 03:12:03;;;;;;;;;7.00;7.00;;;;;18.34;93.29;98918.13;2392360;31;2740885;-49
2021/08/17 03:14:30;;;;;;;;;7.00;5.50;;;;;18.44;93.10;98940.63;2393065;31;2729388;-51
2021/08/17 03:16:58;;;;;;;;;8.00;6.00;;;;;18.50;92.54;98969.84;2391237;31;2737677;-49
2021/08/17 03:19:27;;;;;;;;;7.80;6.00;;;;;18.43;93.99;98987.81;2402235;31;2736636;-51
2021/08/17 03:21:54;;;;;;;;;8.00;7.00;;;;;18.34;94.00;98967.91;2402577;31;2734588;-52
2021/08/17 03:24:22;;;;;;;;;8.00;8.00;;;;;18.47;93.16;98964.75;2391949;31;2743961;-51
2021/08/17 03:26:49;;;;;;;;;7.00;7.00;;;;;18.41;92.90;98984.44;2392249;31;2730398;-50
2021/08/17 03:29:17;;;;;;;;;8.50;6.50;;;;;18.38;93.67;99006.50;2390933;31;2734564;-50
2021/08/17 03:31:44;;;;;;;;;7.00;7.00;;;;;18.37;93.74;98999.34;2390362;39;2740844;-51
2021/08/17 03:34:11;;;;;;;;;9.00;8.00;;;;;18.35;93.66;98987.78;2390433;39;2730438;-48
2021/08/17 03:36:39;;;;;;;;;8.50;8.00;;;;;18.36;92.85;98990.34;2390634;31;2754363;-51
2021/08/17 03:39:06;;;;;;;;;9.00;9.00;;;;;18.21;93.37;99000.09;2390178;39;2735634;-53
2021/08/17 03:41:34;;;;;;;;;9.00;9.00;;;;;18.25;93.37;99001.50;2390665;31;2760611;-50
2021/08/17 03:44:03;;;;;;;;;8.40;8.40;;;;;18.44;92.14;99019.44;2400123;31;2750220;-51
2021/08/17 03:46:31;;;;;;;;;9.00;9.00;;;;;18.10;92.92;99032.97;2402666;31;2729388;-51
2021/08/17 03:48:58;;;;;;;;;11.00;8.00;;;;;18.37;92.80;99059.16;2391953;31;2755393;-50
2021/08/17 03:51:26;;;;;;;;;8.00;8.00;;;;;18.36;91.67;99062.88;2391068;31;2741851;-48
2021/08/17 03:53:53;;;;;;;;;9.00;8.00;;;;;18.43;90.92;99078.41;2390673;31;2738763;-48
2021/08/17 03:56:21;;;;;;;;;8.00;7.50;;;;;18.41;89.76;99083.13;2391695;31;2737717;-50
2021/08/17 03:58:48;;;;;;;;;6.00;6.00;;;;;18.45;89.60;99083.66;2392119;31;2739816;-51
2021/08/17 04:01:17;;;;;;;;;8.00;8.00;;;;;18.39;89.67;99085.16;2391674;31;2728299;-52
2021/08/17 04:03:45;;;;;;;;;8.00;8.00;;;;;18.48;89.18;99071.63;2394123;31;2743919;-56
2021/08/17 04:06:12;;;;;;;;;8.00;8.00;;;;;18.40;88.24;99059.69;2392134;31;2748529;-51
2021/08/17 04:08:40;;;;;;;;;8.50;8.50;;;;;18.61;88.20;99051.13;2392402;31;2726224;-53
2021/08/17 04:11:07;;;;;;;;;11.00;8.00;;;;;18.57;88.30;99044.31;2391388;31;2746030;-52
2021/08/17 04:13:37;;;;;;;;;8.00;8.00;;;;;18.72;87.36;99046.44;2403161;31;2750199;-54
2021/08/17 04:16:05;;;;;;;;;9.00;9.00;;;;;18.62;88.43;99047.41;2402768;31;2752268;-51
2021/08/17 04:18:32;;;;;;;;;8.50;8.50;;;;;18.54;88.36;99044.66;2392674;39;2728350;-52
2021/08/17 04:21:02;;;;;;;;;8.80;8.80;;;;;18.72;88.23;99035.53;2402228;31;2746077;-55
2021/08/17 04:23:31;;;;;;;;;8.40;8.00;;;;;18.88;86.87;99026.63;2412316;31;2748153;-53
2021/08/17 04:25:59;;;;;;;;;8.00;8.00;;;;;18.97;87.19;99034.69;2403053;31;2743931;-53
2021/08/17 04:28:27;;;;;;;;;9.00;7.50;;;;;18.92;87.52;99047.91;2394542;31;2730409;-55
2021/08/17 04:30:55;;;;;;;;;10.00;8.33;;;;;18.90;87.51;99059.97;2392306;39;2767928;-53
2021/08/17 04:33:25;;;;;;;;;10.20;9.80;;;;;18.96;86.72;99056.63;2411943;31;2779346;-53
2021/08/17 04:35:53;;;;;;;;;12.67;10.67;;;;;18.94;87.97;99047.75;2388933;31;3508515;-53
2021/08/17 04:38:23;;;;;;;;;11.20;7.60;;;;;18.86;88.15;99037.69;2413115;31;2758558;-53
2021/08/17 04:40:50;;;;;;;;;8.00;8.00;;;;;18.98;85.93;99039.09;2391232;31;2738715;-54
2021/08/17 04:43:18;;;;;;;;;8.33;8.33;;;;;19.18;86.15;99052.44;2391043;39;2747056;-52
2021/08/17 04:45:47;;;;;;;;;11.67;9.00;;;;;19.17;86.44;99084.25;2401536;31;2760605;-54
2021/08/17 04:48:15;;;;;;;;;8.33;7.00;;;;;19.18;85.15;99118.59;2401884;31;2733538;-55
2021/08/17 04:50:45;;;;;;;;;11.40;9.60;;;;;18.96;86.72;99102.88;2411991;31;2784586;-54
2021/08/17 04:53:13;;;;;;;;;8.33;8.33;;;;;18.81;87.78;99119.78;2390591;31;2749191;-55
2021/08/17 04:55:41;;;;;;;;;11.00;9.00;;;;;18.95;87.35;99121.03;2401145;31;2761740;-55
2021/08/17 04:58:09;;;;;;;;;11.00;9.00;;;;;18.92;88.22;99120.53;2404883;39;2771037;-53
2021/08/17 05:00:45;;;;;;;;;8.40;8.00;;;;;19.00;87.54;99115.97;2411679;31;2752272;-53
2021/08/17 05:03:13;;;;;;;;;10.33;9.33;;;;;19.13;86.34;99125.56;2392893;31;2768970;-56
2021/08/17 05:05:42;;;;;;;;;11.67;10.00;;;;;19.22;86.89;99130.88;2401469;39;2786638;-49
2021/08/17 05:08:11;;;;;;;;;8.00;8.00;;;;;19.35;86.13;99114.06;2401937;31;2746033;-47
2021/08/17 05:10:39;;;;;;;;;14.33;13.00;;;;;19.61;85.82;99122.16;2401052;31;3514745;-48
2021/08/17 05:13:09;;;;;;;;;8.80;8.20;;;;;19.39;86.54;99139.09;2411508;31;2763730;-50
2021/08/17 05:15:37;;;;;;;;;12.33;10.00;;;;;19.41;86.24;99172.47;2388591;31;2781437;-49
2021/08/17 05:18:06;;;;;;;;;8.33;8.00;;;;;19.14;87.45;99181.69;2402496;31;2737709;-51
2021/08/17 05:20:35;;;;;;;;;12.20;10.60;;;;;19.32;86.27;99174.28;2411471;31;2789786;-51
2021/08/17 05:23:03;;;;;;;;;11.00;8.00;;;;;18.97;88.09;99169.88;2391333;31;2758562;-50
2021/08/17 05:25:32;;;;;;;;;8.00;8.00;;;;;19.14;87.04;99178.97;2400873;31;2754344;-52
2021/08/17 05:28:00;;;;;;;;;10.00;8.67;;;;;18.97;88.50;99181.59;2400337;39;2766875;-52
2021/08/17 05:30:29;;;;;;;;;12.00;8.00;;;;;18.92;87.25;99173.06;2412235;31;2762692;-49
2021/08/17 05:32:57;;;;;;;;;7.00;7.00;;;;;18.86;87.20;99144.63;2391776;31;2727269;-49
2021/08/17 05:35:24;;;;;;;;;9.00;8.00;;;;;18.92;87.37;99128.69;2393387;31;2733559;-48
2021/08/17 05:37:54;;;;;;;;;8.00;8.00;;;;;18.96;86.98;99102.88;2403896;31;2746042;-50
2021/08/17 05:40:22;;;;;;;;;8.00;5.00;;;;;18.89;86.81;99090.94;2403968;31;2727257;-49
2021/08/17 05:42:50;;;;;;;;;9.00;9.00;;;;;18.96;86.81;99081.13;2393737;31;2736651;-52
2021/08/17 05:45:18;;;;;;;;;10.00;10.00;;;;;18.57;88.90;99054.34;2392408;31;2796034;-48
2021/08/17 05:47:49;;;;;;;;;9.80;7.40;;;;;19.01;87.93;99041.50;2412408;31;2766842;-53
2021/08/17 05:50:18;;;;;;;;;8.33;7.00;;;;;19.19;86.44;99016.03;2389496;39;2734564;-49
2021/08/17 05:52:47;;;;;;;;;6.67;6.67;;;;;18.97;87.67;99001.19;2402558;31;2746046;-50
2021/08/17 05:55:20;;;;;;;;;11.00;9.00;;;;;19.37;86.99;99008.59;2411841;39;2653341;-49
2021/08/17 05:58:00;;;;;;;;;8.00;8.00;;;;;19.46;85.00;99020.38;2401404;39;2728307;-51
2021/08/17 06:00:29;;;;;;;;;9.00;8.33;;;;;19.37;87.17;99018.63;2402523;31;2748208;-48
2021/08/17 06:02:57;;;;;;;;;9.67;7.00;;;;;19.12;86.43;99037.63;2401193;31;2743923;-47
2021/08/17 06:05:27;;;;;;;;;10.20;9.60;;;;;19.08;87.20;99085.22;2411969;31;2764851;-49
2021/08/17 06:07:55;;;;;;;;;8.67;7.67;;;;;18.86;89.01;99119.31;2391956;31;2744004;-48
2021/08/17 06:10:23;;;;;;;;;6.00;6.00;;;;;18.87;89.37;99137.31;2403071;31;2737717;-50
2021/08/17 06:12:51;;;;;;;;;10.33;8.67;;;;;18.38;92.08;99143.25;2394032;31;2759584;-49
2021/08/17 06:15:23;;;;;;;;;9.00;9.00;;;;;18.38;93.64;99175.03;2418929;31;3442889;-49
2021/08/17 06:17:52;;;;;;;;;11.60;10.60;;;;;18.23;95.78;99182.88;2412453;31;2789770;-49
2021/08/17 06:20:22;;;;;;;;;11.20;10.40;;;;;18.15;95.30;99191.78;2399315;39;2777263;-53
2021/08/17 06:22:50;;;;;;;;;12.50;10.50;;;;;18.53;94.06;99203.34;2393077;31;2788725;-52
2021/08/17 06:25:17;;;;;;;;;10.50;10.50;;;;;18.62;93.21;99202.41;2391627;31;2796020;-51
2021/08/17 06:27:47;;;;;;;;;12.00;12.00;;;;;18.27;95.57;99199.72;2400123;31;2787694;-49
2021/08/17 06:30:16;;;;;;;;;10.33;10.33;;;;;18.35;94.99;99208.81;2388525;31;3517898;-53
2021/08/17 06:32:55;;;;;;;;;9.00;9.00;;;;;18.34;95.43;99215.25;2405494;31;2754371;-51
2021/08/17 06:35:23;;;;;;;;;12.00;10.50;;;;;18.47;95.10;99238.47;2392613;31;2790800;-52
2021/08/17 06:37:53;;;;;;;;;12.20;11.80;;;;;18.29;95.58;99260.19;2400265;31;2787739;-49
2021/08/17 06:40:22;;;;;;;;;13.00;12.00;;;;;18.18;96.30;99266.72;2392181;31;2797086;-50
2021/08/17 06:42:49;;;;;;;;;14.00;12.00;;;;;18.32;94.80;99273.47;2392364;31;2799156;-54
2021/08/17 06:45:18;;;;;;;;;12.00;10.67;;;;;18.42;95.41;99288.72;2389138;31;2793935;-52
2021/08/17 06:47:53;;;;;;;;;11.33;11.00;;;;;17.98;97.42;99293.13;2400621;31;2791870;-50
2021/08/17 06:50:40;;;;;;;;;12.00;12.00;;;;;18.06;95.62;99281.50;2403097;39;2789778;-52
2021/08/17 06:53:08;;;;;;;;;13.00;10.67;;;;;18.23;94.93;99269.84;2387833;39;2784685;-52
2021/08/17 06:55:38;;;;;;;;;13.00;11.20;;;;;18.39;94.48;99263.72;2412831;31;2789794;-52
2021/08/17 06:58:11;;;;;;;;;12.00;12.00;;;;;18.01;97.13;99260.25;2388782;31;2783536;-50
2021/08/17 07:00:45;;;;;;;;;14.33;13.67;;;;;18.29;95.56;99273.78;2400086;31;3518940;-50
2021/08/17 07:03:17;;;;;;;;;14.00;11.67;;;;;18.08;97.50;99264.06;2399588;31;2796048;-52
2021/08/17 07:05:49;;;;;;;;;13.00;13.00;;;;;18.01;97.06;99265.69;2403749;31;2799177;-53
2021/08/17 07:08:17;;;;;;;;;15.67;13.00;;;;;18.03;98.74;99271.81;2387634;31;3532465;-52
2021/08/17 07:10:45;;;;;;;;;12.00;12.00;;;;;18.15;97.29;99291.47;2403929;31;2789802;-50
2021/08/17 07:13:29;;;;;;;;;16.67;14.00;;;;;18.32;97.13;99306.09;2389064;31;3531565;-52
2021/08/17 07:15:57;;;;;;;;;13.50;11.00;;;;;18.18;96.09;99300.19;2404650;31;2799156;-50
2021/08/17 07:18:26;;;;;;;;;13.33;12.00;;;;;17.78;100.00;99295.94;2388427;31;2783574;-54
2021/08/17 07:20:54;;;;;;;;;14.33;12.00;;;;;18.02;98.61;99278.25;2400729;31;2784594;-52
2021/08/17 07:23:23;;;;;;;;;14.00;13.00;;;;;18.05;98.28;99269.78;2400493;31;3513755;-53
2021/08/17 07:25:51;;;;;;;;;12.00;12.00;;;;;17.99;98.50;99273.97;2400704;31;3520991;-53
2021/08/17 07:28:20;;;;;;;;;13.00;11.50;;;;;18.06;98.08;99259.78;2403910;31;2792899;-48
2021/08/17 07:30:47;;;;;;;;;13.00;13.00;;;;;17.89;98.54;99256.88;2392167;31;2797046;-54
2021/08/17 07:33:17;;;;;;;;;15.00;13.67;;;;;18.10;97.41;99267.47;2388390;31;3537804;-50
2021/08/17 07:35:46;;;;;;;;;14.00;13.00;;;;;18.45;96.58;99278.53;2399462;39;2785699;-52
2021/08/17 07:38:14;;;;;;;;;12.67;12.67;;;;;18.26;97.21;99284.97;2400783;31;3522052;-51
2021/08/17 07:40:42;;;;;;;;;14.00;14.00;;;;;17.98;99.75;99293.13;2390646;31;2483529;-52
2021/08/17 07:43:11;;;;;;;;;12.67;12.67;;;;;17.95;99.06;99293.44;2389115;31;3523177;-51
2021/08/17 07:45:38;;;;;;;;;14.00;13.00;;;;;17.99;99.23;99265.84;2402985;31;2798107;-54
2021/08/17 07:48:30;;;;;;;;;13.00;13.00;;;;;18.09;97.96;99252.19;2388546;31;3523074;-53
2021/08/17 07:50:57;;;;;;;;;16.50;15.50;;;;;18.11;97.92;99265.63;2391337;31;2812694;-54
2021/08/17 07:53:25;;;;;;;;;15.00;13.00;;;;;18.33;96.52;99275.22;2393523;31;2774193;-51
2021/08/17 07:55:53;;;;;;;;;13.33;13.33;;;;;18.12;97.76;99279.06;2388526;31;3531443;-53
2021/08/17 07:58:22;;;;;;;;;13.67;13.67;;;;;18.13;98.44;99280.75;2388212;31;3524089;-54
2021/08/17 08:00:50;;;;;;;;;16.00;13.00;;;;;18.09;99.29;99295.66;2402921;31;2796001;-53
2021/08/17 08:03:19;;;;;;;;;14.33;14.33;;;;;18.00;99.90;99321.00;2388645;31;3517870;-53
2021/08/17 08:05:48;;;;;;;;;14.00;14.00;;;;;18.07;100.00;99327.56;2400386;31;3537665;-53
2021/08/17 08:08:15;;;;;;;;;15.00;13.00;;;;;17.98;100.00;99334.75;2403605;31;2800215;-52
2021/08/17 08:10:44;;;;;;;;;15.00;13.00;;;;;18.11;99.67;99333.53;2388268;31;3535621;-52
2021/08/17 08:13:13;;;;;;;;;15.33;15.33;;;;;18.06;100.00;99342.16;2389708;31;3541809;-55
2021/08/17 08:15:42;;;;;;;;;12.60;12.60;;;;;18.07;99.16;99352.00;2399411;31;2783488;-53
2021/08/17 08:18:11;;;;;;;;;14.33;14.33;;;;;18.21;98.42;99361.53;2389126;31;3529412;-51
2021/08/17 08:20:39;;;;;;;;;16.00;14.00;;;;;18.32;97.88;99366.75;2406166;31;2801205;-53
2021/08/17 08:23:08;;;;;;;;;18.67;14.00;;;;;18.19;97.10;99368.97;2389081;31;3534546;-53
2021/08/17 08:25:37;;;;;;;;;14.50;13.50;;;;;18.24;98.22;99376.66;2404917;31;2796126;-54
2021/08/17 08:28:05;;;;;;;;;12.00;12.00;;;;;18.07;98.56;99390.06;2394396;31;2801244;-53
2021/08/17 08:30:34;;;;;;;;;15.67;15.00;;;;;18.32;98.65;99388.47;2390710;31;3546018;-50
2021/08/17 08:33:03;;;;;;;;;16.00;15.00;;;;;18.18;100.00;99387.13;2389934;31;3541808;-53
2021/08/17 08:35:32;;;;;;;;;16.33;14.67;;;;;18.45;98.17;99396.28;2390287;31;3537748;-52
2021/08/17 08:37:59;;;;;;;;;13.00;12.50;;;;;18.38;95.67;99395.19;2394126;31;2804382;-53
2021/08/17 08:40:27;;;;;;;;;14.00;13.00;;;;;18.50;95.42;99406.72;2394603;31;2796016;-53
2021/08/17 08:42:55;;;;;;;;;13.00;12.00;;;;;18.69;94.54;99389.41;2393725;31;2797082;-52
2021/08/17 08:45:25;;;;;;;;;12.00;12.00;;;;;18.65;93.63;99389.72;2394000;31;2792967;-53
2021/08/17 08:47:52;;;;;;;;;9.00;8.00;;;;;18.76;93.25;99396.84;2392376;31;2748113;-53
2021/08/17 08:50:21;;;;;;;;;13.50;13.00;;;;;18.79;92.34;99399.25;2393874;31;2796019;-53
2021/08/17 08:52:49;;;;;;;;;11.00;11.00;;;;;18.60;95.10;99391.19;2390034;31;3518896;-50
2021/08/17 08:55:17;;;;;;;;;11.50;11.00;;;;;18.87;93.07;99393.03;2405982;31;2786609;-53
2021/08/17 08:57:46;;;;;;;;;11.00;10.00;;;;;18.94;91.40;99390.56;2390690;31;2786754;-50
2021/08/17 09:00:14;;;;;;;;;10.00;10.00;;;;;19.21;90.54;99397.78;2402620;31;2791918;-48
2021/08/17 09:02:43;;;;;;;;;11.00;10.00;;;;;19.48;88.42;99403.13;2403051;31;2779426;-49
2021/08/17 09:05:13;;;;;;;;;11.00;11.00;;;;;19.79;87.96;99397.22;2403112;31;2804345;-49
2021/08/17 09:07:47;;;;;;;;;9.67;9.67;;;;;20.56;84.39;99416.34;2390346;31;2774213;-52
2021/08/17 09:10:19;;;;;;;;;10.67;10.00;;;;;20.75;82.39;99402.44;2402440;31;2788756;-49
2021/08/17 09:12:59;;;;;;;;;8.00;8.00;;;;;20.72;81.58;99402.78;2403003;31;2741884;-55
2021/08/17 09:15:33;;;;;;;;;11.80;9.20;;;;;20.27;83.84;99397.63;2411964;31;2779342;-52
2021/08/17 09:18:07;;;;;;;;;9.20;8.60;;;;;20.11;85.99;99404.72;2402822;31;2742264;-53
2021/08/17 09:20:43;;;;;;;;;11.00;11.00;;;;;20.09;83.02;99392.25;2401363;31;2793964;-49
2021/08/17 09:23:30;;;;;;;;;8.00;8.00;;;;;20.05;85.97;99394.47;2400253;31;2750233;-52
2021/08/17 09:26:19;;;;;;;;;7.00;7.00;;;;;19.72;85.10;99391.56;2400501;31;2733495;-50
2021/08/17 09:29:00;;;;;;;;;11.00;8.33;;;;;19.74;84.51;99396.84;2403976;31;2761666;-52
2021/08/17 09:31:38;;;;;;;;;11.00;7.00;;;;;19.98;84.51;99384.38;2403653;31;2764776;-49
2021/08/17 09:34:10;;;;;;;;;9.33;9.00;;;;;19.73;84.42;99389.69;2402405;31;2746034;-48
2021/08/17 09:36:43;;;;;;;;;9.80;7.40;;;;;19.68;84.68;99392.03;2413592;31;2755401;-53
2021/08/17 09:39:27;;;;;;;;;8.00;8.00;;;;;19.47;82.75;99401.38;2391850;31;2737669;-49
2021/08/17 09:42:18;;;;;;;;;5.67;5.67;;;;;19.28;84.24;99432.38;2404170;31;2737709;-46
2021/08/17 09:45:16;;;;;;;;;5.00;4.33;;;;;19.30;83.85;99424.06;2403407;31;2739808;-49
2021/08/17 09:47:53;;;;;;;;;5.00;5.00;;;;;19.58;80.63;99434.84;2403445;31;2742906;-48
2021/08/17 09:50:31;;;;;;;;;3.67;3.67;;;;;19.61;81.33;99450.84;2403866;31;2737661;-48
2021/08/17 09:53:14;;;;;;;;;4.67;4.67;;;;;19.38;83.36;99445.91;2403249;31;2747052;-50
2021/08/17 09:55:57;;;;;;;;;3.33;3.33;;;;;19.34;84.04;99444.50;2402419;31;2747068;-51
2021/08/17 09:58:34;;;;;;;;;5.00;3.00;;;;;19.41;81.11;99453.75;2402099;31;2750217;-48
2021/08/17 10:01:11;;;;;;;;;1.00;1.00;;;;;19.22;80.80;99452.06;2403107;39;2728319;-49
2021/08/17 10:03:41;;;;;;;;;7.67;3.00;;;;;19.52;80.69;99463.56;2402871;31;2731489;-51
2021/08/17 10:06:09;;;;;;;;;4.00;3.00;;;;;19.28;80.83;99466.91;2403318;31;2727273;-49
2021/08/17 10:08:40;;;;;;;;;2.00;1.00;;;;;19.10;78.46;99476.94;2403004;31;2732485;-50
2021/08/17 10:11:09;;;;;;;;;1.33;1.33;;;;;19.47;77.60;99493.97;2403210;39;2724164;-53
2021/08/17 10:13:38;;;;;;;;;0.33;0.33;;;;;19.41;76.41;99494.59;2403459;31;2725214;-48
2021/08/17 10:16:07;;;;;;;;;0.00;0.00;;;;;19.16;73.90;99495.38;2403230;31;2724179;-50
2021/08/17 10:18:41;;;;;;;;;0.00;0.00;;;;;18.97;72.12;99499.94;2404321;31;2725214;-49
2021/08/17 10:21:10;;;;;;;;;0.00;0.00;;;;;19.12;70.99;99483.94;2402510;39;2729353;-50
2021/08/17 10:23:45;;;;;;;;;0.00;0.00;;;;;19.39;70.51;99477.56;2404179;31;2724179;-52
2021/08/17 10:26:32;;;;;;;;;0.00;0.00;;;;;19.55;68.62;99486.91;2402790;39;2724163;-50
2021/08/17 10:29:00;;;;;;;;;0.00;0.00;;;;;19.70;67.50;99505.28;2402934;31;2733529;-49
2021/08/17 10:31:33;;;;;;;;;0.00;0.00;;;;;19.69;67.67;99514.44;2403536;31;2722061;-48
2021/08/17 10:34:08;;;;;;;;;1.00;1.00;;;;;20.09;65.87;99510.34;2403156;39;2731451;-56
2021/08/17 10:36:43;;;;;;;;;1.00;0.00;;;;;20.32;66.60;99505.19;2403911;31;2728358;-48
2021/08/17 10:39:17;;;;;;;;;1.00;1.00;;;;;20.18;62.82;99503.06;2404222;31;2739757;-52
2021/08/17 10:41:48;;;;;;;;;0.00;0.00;;;;;19.92;64.60;99494.88;2404735;31;2728338;-51
2021/08/17 10:44:21;;;;;;;;;0.00;0.00;;;;;19.61;65.21;99498.00;2405730;31;2718970;-50
2021/08/17 10:46:56;;;;;;;;;1.00;0.00;;;;;19.86;64.34;99476.47;2406780;31;2725162;-50
2021/08/17 10:49:33;;;;;;;;;0.00;0.00;;;;;20.12;64.25;99482.75;2405023;31;2727241;-50
2021/08/17 10:52:07;;;;;;;;;1.00;0.00;;;;;20.31;63.27;99489.00;2405542;31;2718927;-50
2021/08/17 10:54:38;;;;;;;;;1.00;1.00;;;;;19.76;63.88;99483.88;2406240;31;2729376;-54
2021/08/17 10:57:21;;;;;;;;;0.33;0.33;;;;;20.37;63.75;99491.06;2404358;31;2724163;-50
2021/08/17 10:59:51;;;;;;;;;0.00;0.00;;;;;20.21;64.14;99486.38;2403839;31;2725218;-49
2021/08/17 11:02:23;;;;;;;;;0.67;0.67;;;;;20.18;62.70;99493.00;2404491;31;2721003;-48
2021/08/17 11:04:52;;;;;;;;;3.00;1.00;;;;;20.43;63.45;99505.94;2405112;31;2724136;-51
2021/08/17 11:07:32;;;;;;;;;1.00;1.00;;;;;20.10;64.48;99506.59;2405995;31;2735590;-52
2021/08/17 11:10:04;;;;;;;;;0.00;0.00;;;;;19.77;62.53;99518.25;2404579;31;2729333;-55
2021/08/17 11:12:35;;;;;;;;;0.00;0.00;;;;;19.60;63.15;99526.25;2405265;31;2727250;-50
2021/08/17 11:15:09;;;;;;;;;1.00;1.00;;;;;19.49;63.63;99512.91;2404963;31;2722057;-53
2021/08/17 11:17:37;;;;;;;;;0.00;0.00;;;;;19.21;63.41;99498.47;2405647;31;2725201;-54
2021/08/17 11:20:06;;;;;;;;;2.00;0.00;;;;;18.97;62.41;99493.63;2404109;31;2725205;-54
2021/08/17 11:22:37;;;;;;;;;1.00;1.00;;;;;19.29;63.78;99501.28;2403898;31;2729340;-52
2021/08/17 11:25:08;;;;;;;;;1.00;1.00;;;;;19.06;64.09;99506.31;2404131;31;2724248;-49